Time;durP1;ratioP1;P1;durP2;ratioP2;P2;SDS_P1;SDS_P2;PMS_P1;PMS_P2;Temp;Humidity;BMP_temperature;BMP_pressure;BME280_temperature;BME280_humidity;BME280_pressure;Samples;Min_cycle;Max_cycle;Signal;HPM_P1;HPM_P2
2022/08/25 00:01:36;;;;;;;4.70;3.50;;;27.40;42.90;;;;;;5059663;28;20448;-64
2022/08/25 00:04:07;;;;;;;4.43;3.60;;;27.40;43.00;;;;;;5059223;28;20523;-64
2022/08/25 00:06:33;;;;;;;5.07;3.03;;;27.50;42.90;;;;;;5059180;28;20856;-64
2022/08/25 00:09:01;;;;;;;4.60;3.00;;;27.40;42.70;;;;;;5059512;28;20453;-64
2022/08/25 00:11:31;;;;;;;3.63;3.20;;;27.40;42.60;;;;;;5058914;28;20446;-64
2022/08/25 00:14:01;;;;;;;3.50;3.03;;;27.40;42.60;;;;;;5059266;28;20470;-64
2022/08/25 00:16:30;;;;;;;4.23;3.20;;;27.30;42.60;;;;;;5059084;28;20437;-64
2022/08/25 00:19:00;;;;;;;4.43;3.13;;;27.40;42.50;;;;;;5059954;28;20500;-64
2022/08/25 00:21:27;;;;;;;7.90;3.53;;;27.40;42.60;;;;;;5058467;28;20456;-64
2022/08/25 00:23:55;;;;;;;3.77;3.10;;;27.40;42.80;;;;;;5058539;28;20490;-64
2022/08/25 00:26:25;;;;;;;6.50;3.30;;;27.30;42.80;;;;;;5058671;28;20453;-64
2022/08/25 00:28:52;;;;;;;5.50;3.53;;;27.30;42.80;;;;;;5058627;28;20453;-64
2022/08/25 00:31:22;;;;;;;4.47;3.20;;;27.30;42.90;;;;;;5058192;28;20488;-64
2022/08/25 00:33:50;;;;;;;4.27;2.90;;;27.20;42.90;;;;;;5059004;28;20470;-64
2022/08/25 00:36:18;;;;;;;3.37;3.07;;;27.20;43.20;;;;;;5058469;28;20477;-64
2022/08/25 00:38:47;;;;;;;4.30;3.00;;;27.20;43.40;;;;;;5058186;28;20442;-64
2022/08/25 00:41:17;;;;;;;3.03;2.77;;;27.10;43.40;;;;;;5058958;28;20474;-64
2022/08/25 00:43:53;;;;;;;5.60;3.20;;;27.10;43.40;;;;;;5058198;28;20990;-64
2022/08/25 00:46:24;;;;;;;3.47;2.90;;;27.10;43.50;;;;;;5058465;28;20434;-64
2022/08/25 00:48:57;;;;;;;4.10;2.67;;;27.10;43.70;;;;;;5058360;28;20426;-64
2022/08/25 00:51:32;;;;;;;3.70;3.47;;;27.10;43.80;;;;;;5058023;28;20484;-64
2022/08/25 00:54:00;;;;;;;3.20;3.00;;;27.00;43.60;;;;;;5057924;28;20464;-64
2022/08/25 00:56:28;;;;;;;3.50;3.23;;;27.00;43.60;;;;;;5057698;28;20474;-64
2022/08/25 00:58:57;;;;;;;3.60;3.17;;;27.00;43.30;;;;;;5057649;28;20457;-64
2022/08/25 01:01:24;;;;;;;3.43;2.40;;;27.00;43.30;;;;;;5057729;28;20524;-64
2022/08/25 01:03:50;;;;;;;4.40;3.63;;;26.90;43.40;;;;;;5057804;28;20545;-64
2022/08/25 01:06:18;;;;;;;7.50;3.77;;;26.90;43.40;;;;;;5057139;28;20444;-64
2022/08/25 01:08:45;;;;;;;7.30;3.97;;;26.80;43.50;;;;;;5057200;28;20472;-64
2022/08/25 01:11:13;;;;;;;5.70;3.60;;;26.80;43.70;;;;;;5057670;28;20483;-64
2022/08/25 01:13:44;;;;;;;4.53;3.50;;;26.80;44.20;;;;;;5057584;28;20478;-64
2022/08/25 01:16:13;;;;;;;5.03;3.83;;;26.70;43.60;;;;;;5057316;28;20470;-64
2022/08/25 01:18:47;;;;;;;5.13;4.00;;;26.70;43.70;;;;;;5058108;28;20449;-65
2022/08/25 01:21:16;;;;;;;4.87;4.00;;;26.70;43.90;;;;;;5058297;28;20441;-65
2022/08/25 01:23:44;;;;;;;6.40;3.93;;;26.60;44.10;;;;;;5057489;28;20552;-65
2022/08/25 01:26:14;;;;;;;6.93;3.73;;;26.60;44.10;;;;;;5057605;28;20453;-65
2022/08/25 01:29:19;;;;;;;11.80;3.63;;;26.50;44.10;;;;;;5057837;28;20438;-65
2022/08/25 01:31:30;;;;;;;4.50;4.10;;;26.50;44.20;;;;;;5058129;28;20813;-64
2022/08/25 01:33:57;;;;;;;6.43;3.70;;;26.50;44.40;;;;;;5060423;28;20469;-65
2022/08/25 01:36:27;;;;;;;5.00;4.23;;;26.40;44.30;;;;;;5058956;28;20579;-65
2022/08/25 01:38:55;;;;;;;5.03;3.83;;;26.40;44.10;;;;;;5060073;28;20431;-64
2022/08/25 01:41:31;;;;;;;5.87;3.80;;;26.40;44.00;;;;;;5057997;28;20449;-65
2022/08/25 01:43:58;;;;;;;4.57;4.10;;;26.30;44.00;;;;;;5057833;28;20531;-64
2022/08/25 01:46:26;;;;;;;8.50;4.50;;;26.30;44.50;;;;;;5058061;28;20532;-64
2022/08/25 01:48:53;;;;;;;5.67;3.70;;;26.20;44.20;;;;;;5057009;28;20946;-65
2022/08/25 01:51:23;;;;;;;7.13;4.20;;;26.20;44.50;;;;;;5057066;28;20460;-64
2022/08/25 01:53:51;;;;;;;5.60;4.30;;;26.20;44.70;;;;;;5056752;28;20862;-65
2022/08/25 01:56:18;;;;;;;9.97;4.10;;;26.10;45.00;;;;;;5057682;28;20535;-64
2022/08/25 01:58:47;;;;;;;3.57;3.27;;;26.10;45.10;;;;;;5057206;28;20450;-64
2022/08/25 02:01:17;;;;;;;5.83;4.50;;;26.00;45.30;;;;;;5057667;28;20442;-65
2022/08/25 02:03:58;;;;;;;4.77;3.67;;;26.00;45.40;;;;;;5057841;28;20469;-64
2022/08/25 02:06:28;;;;;;;5.40;3.50;;;26.00;45.40;;;;;;5057794;28;20469;-64
2022/08/25 02:08:59;;;;;;;7.53;3.63;;;25.90;45.30;;;;;;5057280;28;20445;-65
2022/08/25 02:11:25;;;;;;;5.10;3.07;;;25.90;45.40;;;;;;5057317;28;20449;-65
2022/08/25 02:13:53;;;;;;;6.27;3.67;;;25.90;45.40;;;;;;5057576;28;20476;-65
2022/08/25 02:16:23;;;;;;;5.10;3.83;;;25.80;45.40;;;;;;5057435;28;20481;-65
2022/08/25 02:18:50;;;;;;;7.10;3.80;;;25.80;45.50;;;;;;5060498;28;20430;-64
2022/08/25 02:21:17;;;;;;;3.37;3.07;;;25.80;45.50;;;;;;5062738;28;20468;-65
2022/08/25 02:23:44;;;;;;;3.80;3.50;;;25.70;45.40;;;;;;5062557;28;20485;-65
2022/08/25 02:26:15;;;;;;;3.20;2.90;;;25.70;45.40;;;;;;5062051;28;20442;-65
2022/08/25 02:28:42;;;;;;;6.13;3.33;;;25.60;45.50;;;;;;5060711;28;20923;-64
2022/08/25 02:31:09;;;;;;;5.03;3.23;;;25.50;45.70;;;;;;5061388;28;20453;-64
2022/08/25 02:33:36;;;;;;;5.23;3.53;;;25.40;45.80;;;;;;5061149;28;20493;-65
2022/08/25 02:36:06;;;;;;;3.47;3.27;;;25.40;46.10;;;;;;5061105;28;20493;-65
2022/08/25 02:38:33;;;;;;;5.47;3.73;;;25.30;46.30;;;;;;5061070;28;20454;-65
2022/08/25 02:41:01;;;;;;;4.03;3.73;;;25.20;46.50;;;;;;5061563;28;20445;-65
2022/08/25 02:43:29;;;;;;;5.60;4.00;;;25.10;46.80;;;;;;5061210;28;20977;-64
2022/08/25 02:45:56;;;;;;;4.37;3.97;;;25.10;47.00;;;;;;5061572;28;20848;-64
2022/08/25 02:48:23;;;;;;;3.80;3.40;;;25.00;47.20;;;;;;5061813;28;20946;-65
2022/08/25 02:50:51;;;;;;;3.80;3.50;;;25.00;47.40;;;;;;5060760;28;20449;-64
2022/08/25 02:53:18;;;;;;;3.97;3.57;;;24.90;47.50;;;;;;5059806;28;20477;-65
2022/08/25 02:55:46;;;;;;;4.00;3.70;;;24.80;47.60;;;;;;5059752;28;20461;-64
2022/08/25 02:58:13;;;;;;;4.07;3.67;;;24.80;47.70;;;;;;5060087;28;20450;-64
2022/08/25 03:00:41;;;;;;;4.03;3.63;;;24.80;47.90;;;;;;5060273;28;20972;-64
2022/08/25 03:03:08;;;;;;;6.40;3.90;;;24.70;47.90;;;;;;5059488;28;20476;-65
2022/08/25 03:05:35;;;;;;;3.73;3.37;;;24.70;48.00;;;;;;5058896;28;20449;-64
2022/08/25 03:08:01;;;;;;;4.03;3.53;;;24.60;48.10;;;;;;5056759;28;20457;-64
2022/08/25 03:10:28;;;;;;;4.90;3.63;;;24.60;48.20;;;;;;5058016;28;20450;-65
2022/08/25 03:12:55;;;;;;;4.93;3.73;;;24.50;48.20;;;;;;5059060;28;20473;-64
2022/08/25 03:15:24;;;;;;;4.63;3.83;;;24.50;48.30;;;;;;5059597;28;20477;-64
2022/08/25 03:17:52;;;;;;;5.13;3.70;;;24.40;48.30;;;;;;5059714;28;20950;-64
2022/08/25 03:20:20;;;;;;;5.30;3.77;;;24.40;48.40;;;;;;5059559;28;20452;-65
2022/08/25 03:22:47;;;;;;;4.57;4.13;;;24.30;48.30;;;;;;5059802;28;21065;-65
2022/08/25 03:27:59;;;;;;;5.30;3.93;;;24.30;48.40;;;;;;5059635;28;20460;-65
2022/08/25 03:30:27;;;;;;;5.90;4.47;;;24.30;48.50;;;;;;5058611;28;20442;-65
2022/08/25 03:32:55;;;;;;;4.83;3.67;;;24.20;48.50;;;;;;5060120;28;20476;-64
2022/08/25 03:35:22;;;;;;;5.00;4.23;;;24.20;48.60;;;;;;5059473;28;20480;-64
2022/08/25 03:37:50;;;;;;;5.73;4.37;;;24.20;48.60;;;;;;5060188;28;20454;-64
2022/08/25 03:40:17;;;;;;;6.13;4.07;;;24.10;48.60;;;;;;5059944;28;20454;-64
2022/08/25 03:42:45;;;;;;;3.90;3.60;;;24.20;48.70;;;;;;5060224;28;20500;-64
2022/08/25 03:45:14;;;;;;;5.10;4.50;;;24.10;48.80;;;;;;5059052;28;20461;-64
2022/08/25 03:47:41;;;;;;;5.43;4.00;;;24.10;49.00;;;;;;5059447;28;20446;-64
2022/08/25 03:50:11;;;;;;;4.50;3.30;;;24.00;49.00;;;;;;5059123;28;20464;-65
2022/08/25 03:52:38;;;;;;;7.23;4.20;;;24.00;49.20;;;;;;5059933;28;20462;-64
2022/08/25 03:55:08;;;;;;;6.13;4.20;;;24.00;49.40;;;;;;5059365;28;20445;-64
2022/08/25 03:57:35;;;;;;;6.20;4.00;;;24.00;49.40;;;;;;5060372;28;20438;-64
2022/08/25 04:00:05;;;;;;;5.50;4.50;;;24.00;49.50;;;;;;5059519;28;20461;-64
2022/08/25 04:02:32;;;;;;;7.93;4.20;;;24.00;49.40;;;;;;5060326;28;20498;-64
2022/08/25 04:04:59;;;;;;;5.87;4.40;;;24.00;49.40;;;;;;5060120;28;20950;-65
2022/08/25 04:07:27;;;;;;;7.03;4.73;;;24.00;49.40;;;;;;5059621;28;20457;-65
2022/08/25 04:09:54;;;;;;;7.07;4.53;;;23.90;49.40;;;;;;5059096;28;20450;-65
2022/08/25 04:12:22;;;;;;;4.63;4.23;;;23.90;49.50;;;;;;5059078;28;20497;-65
2022/08/25 04:14:49;;;;;;;5.90;4.77;;;23.90;49.60;;;;;;5058708;28;20456;-65
2022/08/25 04:17:16;;;;;;;4.73;4.23;;;23.80;49.50;;;;;;5059162;28;20568;-63
2022/08/25 04:19:43;;;;;;;4.60;3.70;;;23.80;49.60;;;;;;5058708;28;20456;-64
2022/08/25 04:22:09;;;;;;;6.63;4.73;;;23.70;49.90;;;;;;5058038;28;20472;-64
2022/08/25 04:24:38;;;;;;;6.40;4.40;;;23.70;50.10;;;;;;5059205;28;20453;-63
2022/08/25 04:27:05;;;;;;;9.00;5.37;;;23.60;50.40;;;;;;5059834;28;20448;-63
2022/08/25 04:29:32;;;;;;;8.90;4.43;;;23.60;50.60;;;;;;5060433;28;20957;-63
2022/08/25 04:31:58;;;;;;;6.87;4.30;;;23.60;50.60;;;;;;5059418;28;20472;-65
2022/08/25 04:34:27;;;;;;;5.20;4.50;;;23.50;50.60;;;;;;5058329;28;20468;-64
2022/08/25 04:36:54;;;;;;;8.40;4.83;;;23.60;50.80;;;;;;5058984;28;20848;-64
2022/08/25 04:39:21;;;;;;;8.43;5.03;;;23.50;50.80;;;;;;5060610;28;20541;-63
2022/08/25 04:41:50;;;;;;;6.80;4.60;;;23.50;51.00;;;;;;5059117;28;20442;-63
2022/08/25 04:44:17;;;;;;;5.20;4.10;;;23.40;51.10;;;;;;5059537;28;20820;-64
2022/08/25 04:46:44;;;;;;;5.20;4.30;;;23.40;51.10;;;;;;5059738;28;20430;-63
2022/08/25 04:49:11;;;;;;;7.50;5.03;;;23.40;51.00;;;;;;5059177;28;20460;-63
2022/08/25 04:51:41;;;;;;;11.50;5.50;;;23.40;51.10;;;;;;5059445;28;20493;-63
2022/08/25 04:54:10;;;;;;;5.03;4.53;;;23.40;51.20;;;;;;5058556;28;20529;-64
2022/08/25 04:56:39;;;;;;;5.27;4.77;;;23.40;51.20;;;;;;5058054;28;20489;-63
2022/08/25 04:59:10;;;;;;;8.50;4.13;;;23.40;51.40;;;;;;5058537;28;20454;-63
2022/08/25 05:01:37;;;;;;;4.10;3.80;;;23.40;51.50;;;;;;5058021;28;20441;-63
2022/08/25 05:04:07;;;;;;;4.37;3.97;;;23.40;51.60;;;;;;5060898;28;20457;-63
2022/08/25 05:06:34;;;;;;;6.30;4.40;;;23.40;51.90;;;;;;5058797;28;20457;-63
2022/08/25 05:09:02;;;;;;;7.20;3.97;;;23.40;52.00;;;;;;5058564;28;20445;-63
2022/08/25 05:11:29;;;;;;;5.40;4.07;;;23.50;52.00;;;;;;5058673;28;20526;-63
2022/08/25 05:13:57;;;;;;;6.47;4.70;;;23.50;52.10;;;;;;5057900;28;20484;-63
2022/08/25 05:16:27;;;;;;;4.97;4.10;;;23.60;52.20;;;;;;5058165;28;20478;-63
2022/08/25 05:18:54;;;;;;;10.73;4.50;;;23.60;52.30;;;;;;5059029;28;20942;-64
2022/08/25 05:21:24;;;;;;;6.30;4.70;;;23.60;52.20;;;;;;5058451;28;20454;-63
2022/08/25 05:23:56;;;;;;;7.30;5.00;;;23.70;52.20;;;;;;5058768;28;20473;-63
2022/08/25 05:26:25;;;;;;;6.20;4.73;;;23.70;52.30;;;;;;5059137;28;20460;-63
2022/08/25 05:28:54;;;;;;;8.73;5.30;;;23.70;52.40;;;;;;5059826;28;20434;-63
2022/08/25 05:31:23;;;;;;;8.97;5.20;;;23.70;52.60;;;;;;5060153;28;20442;-63
2022/08/25 05:33:52;;;;;;;7.73;5.13;;;23.70;52.80;;;;;;5059926;28;20466;-63
2022/08/25 05:36:19;;;;;;;8.80;5.07;;;23.80;52.80;;;;;;5060080;28;20489;-63
2022/08/25 05:38:47;;;;;;;12.60;5.27;;;23.80;52.70;;;;;;5059535;28;20434;-63
2022/08/25 05:41:17;;;;;;;9.37;5.90;;;23.80;52.70;;;;;;5059246;28;20460;-63
2022/08/25 05:43:47;;;;;;;6.70;5.13;;;23.90;52.90;;;;;;5058450;28;20469;-63
2022/08/25 05:46:15;;;;;;;11.33;5.30;;;23.90;53.30;;;;;;5057670;28;20515;-63
2022/08/25 05:48:42;;;;;;;7.53;5.03;;;24.00;52.80;;;;;;5056757;28;20430;-63
2022/08/25 05:51:11;;;;;;;6.17;4.20;;;24.00;52.90;;;;;;5056157;28;20446;-63
2022/08/25 05:53:43;;;;;;;8.90;4.67;;;24.00;52.80;;;;;;5058601;28;20482;-63
2022/08/25 05:56:12;;;;;;;5.43;4.40;;;24.10;52.90;;;;;;5062073;28;20470;-63
2022/08/25 05:58:40;;;;;;;7.43;4.60;;;24.10;52.60;;;;;;5062560;28;20839;-63
2022/08/25 06:03:53;;;;;;;6.87;4.73;;;24.20;52.80;;;;;;5060457;28;20441;-63
2022/08/25 06:06:23;;;;;;;4.23;3.83;;;24.30;52.70;;;;;;5061422;28;20467;-63
2022/08/25 06:08:50;;;;;;;7.83;4.90;;;24.30;52.50;;;;;;5061171;28;20804;-63
2022/08/25 06:11:18;;;;;;;7.53;4.43;;;24.40;52.10;;;;;;5061522;28;20553;-63
2022/08/25 06:13:45;;;;;;;5.60;3.90;;;24.40;51.60;;;;;;5060760;28;20480;-63
2022/08/25 06:16:12;;;;;;;5.57;4.20;;;24.40;51.40;;;;;;5061012;28;20465;-64
2022/08/25 06:18:39;;;;;;;6.93;4.30;;;24.50;51.30;;;;;;5061714;28;20452;-63
2022/08/25 06:21:11;;;;;;;10.07;5.13;;;24.60;51.60;;;;;;5060816;28;20540;-63
2022/08/25 06:23:40;;;;;;;13.67;4.83;;;24.60;51.50;;;;;;5073117;28;20500;-64
2022/08/25 06:26:10;;;;;;;8.53;4.40;;;24.70;51.50;;;;;;5080722;28;20480;-64
2022/08/25 06:28:36;;;;;;;21.80;4.23;;;24.70;51.30;;;;;;5081395;28;20451;-63
2022/08/25 06:31:04;;;;;;;8.23;4.57;;;24.70;50.10;;;;;;5081715;28;20501;-64
2022/08/25 06:33:31;;;;;;;8.00;3.70;;;24.80;50.10;;;;;;5080823;28;20476;-64
2022/08/25 06:35:58;;;;;;;4.17;3.77;;;24.90;50.30;;;;;;5080085;28;20429;-63
2022/08/25 06:38:26;;;;;;;5.50;3.67;;;25.00;50.40;;;;;;5079648;28;20452;-63
2022/08/25 06:40:55;;;;;;;5.97;4.03;;;25.10;50.10;;;;;;5076999;28;20440;-63
2022/08/25 06:43:23;;;;;;;4.17;3.40;;;25.20;49.80;;;;;;5078163;28;20480;-63
2022/08/25 06:45:49;;;;;;;4.67;3.33;;;25.30;49.10;;;;;;5079612;28;20514;-63
2022/08/25 06:48:17;;;;;;;6.50;4.27;;;25.40;49.00;;;;;;5080542;28;20448;-64
2022/08/25 06:50:44;;;;;;;5.77;4.47;;;25.40;49.00;;;;;;5079924;28;20433;-64
2022/08/25 06:53:11;;;;;;;7.70;4.63;;;25.60;49.00;;;;;;5080505;28;20823;-63
2022/08/25 06:55:39;;;;;;;5.73;4.00;;;25.70;48.90;;;;;;5080234;28;20452;-63
2022/08/25 06:58:08;;;;;;;12.70;4.30;;;25.70;48.70;;;;;;5080039;28;20479;-63
2022/08/25 07:00:35;;;;;;;6.00;4.00;;;25.90;48.70;;;;;;5079996;28;20522;-64
2022/08/25 07:03:03;;;;;;;6.13;4.13;;;25.90;48.70;;;;;;5080534;28;20477;-64
2022/08/25 07:05:30;;;;;;;10.70;4.27;;;26.10;48.70;;;;;;5079389;28;20449;-64
2022/08/25 07:07:57;;;;;;;5.23;4.30;;;26.20;48.70;;;;;;5079493;28;20429;-63
2022/08/25 07:10:24;;;;;;;4.20;3.37;;;26.30;48.40;;;;;;5080293;28;20448;-64
2022/08/25 07:12:51;;;;;;;7.23;4.07;;;26.40;48.00;;;;;;5079634;28;20468;-64
2022/08/25 07:15:20;;;;;;;6.80;3.53;;;26.50;47.50;;;;;;5079633;28;20945;-64
2022/08/25 07:17:47;;;;;;;7.70;4.10;;;26.60;47.20;;;;;;5079112;28;20483;-64
2022/08/25 07:20:14;;;;;;;6.23;3.73;;;26.70;46.90;;;;;;5079476;28;20812;-64
2022/08/25 07:22:41;;;;;;;8.13;4.20;;;26.80;46.50;;;;;;5079076;28;20477;-64
2022/08/25 07:25:10;;;;;;;6.03;3.50;;;27.00;46.40;;;;;;5079363;28;20949;-64
2022/08/25 07:27:37;;;;;;;10.00;4.40;;;27.10;46.70;;;;;;5078863;28;20452;-64
2022/08/25 07:30:06;;;;;;;10.73;4.90;;;27.20;45.80;;;;;;5078719;28;20464;-64
2022/08/25 07:32:34;;;;;;;5.83;3.60;;;27.40;45.40;;;;;;5080445;28;20495;-64
2022/08/25 07:35:16;;;;;;;6.37;3.70;;;27.50;44.80;;;;;;5080902;28;20436;-64
2022/08/25 07:37:43;;;;;;;12.00;3.47;;;27.60;44.70;;;;;;5078873;28;20469;-64
2022/08/25 07:40:12;;;;;;;6.50;4.10;;;27.80;44.50;;;;;;5079225;28;20425;-64
2022/08/25 07:42:39;;;;;;;8.20;3.90;;;27.90;43.80;;;;;;5078377;28;20484;-64
2022/08/25 07:45:09;;;;;;;5.70;4.40;;;28.00;43.60;;;;;;5078997;28;20451;-63
2022/08/25 07:47:37;;;;;;;5.70;4.30;;;28.20;43.10;;;;;;5078406;28;20536;-63
2022/08/25 07:50:05;;;;;;;7.70;4.00;;;28.30;42.60;;;;;;5077926;28;20445;-64
2022/08/25 07:52:32;;;;;;;4.50;3.77;;;28.50;42.70;;;;;;5077701;28;20841;-64
2022/08/25 07:54:59;;;;;;;6.57;3.53;;;28.60;42.50;;;;;;5078004;28;20471;-63
2022/08/25 07:57:27;;;;;;;6.30;3.80;;;28.80;42.30;;;;;;5077357;28;20476;-64
2022/08/25 07:59:54;;;;;;;4.67;3.17;;;28.90;42.00;;;;;;5077347;28;20600;-64
2022/08/25 08:02:20;;;;;;;6.87;4.30;;;29.10;41.80;;;;;;5077723;28;20472;-64
2022/08/25 08:04:50;;;;;;;6.83;3.97;;;29.20;42.10;;;;;;5077765;28;20456;-64
2022/08/25 08:07:18;;;;;;;10.67;4.57;;;29.30;41.30;;;;;;5077134;28;20445;-64
2022/08/25 08:09:45;;;;;;;5.93;3.77;;;29.50;40.90;;;;;;5076393;28;20957;-63
2022/08/25 08:12:12;;;;;;;7.93;4.20;;;29.70;40.70;;;;;;5076675;28;20468;-64
2022/08/25 08:14:39;;;;;;;5.87;4.60;;;29.80;40.30;;;;;;5077037;28;20444;-64
2022/08/25 08:17:07;;;;;;;3.80;3.40;;;29.90;39.80;;;;;;5076713;28;20473;-64
2022/08/25 08:19:34;;;;;;;4.30;4.00;;;30.20;39.50;;;;;;5076440;28;20456;-64
2022/08/25 08:22:04;;;;;;;5.23;3.60;;;30.30;38.90;;;;;;5076594;28;20473;-64
2022/08/25 08:24:33;;;;;;;11.70;4.07;;;30.50;38.50;;;;;;5075953;28;20797;-64
2022/08/25 08:27:01;;;;;;;13.37;4.70;;;30.70;38.40;;;;;;5076480;28;20453;-64
2022/08/25 08:29:28;;;;;;;7.00;5.20;;;30.90;37.80;;;;;;5076999;28;20455;-64
2022/08/25 08:31:55;;;;;;;8.20;4.40;;;31.00;37.30;;;;;;5077278;28;20444;-64
2022/08/25 08:34:23;;;;;;;5.27;4.07;;;31.20;36.70;;;;;;5077263;28;20478;-65
2022/08/25 08:36:49;;;;;;;11.90;5.30;;;31.40;36.60;;;;;;5076865;28;20541;-64
2022/08/25 08:39:18;;;;;;;6.43;3.73;;;31.60;36.30;;;;;;5077963;28;20816;-64
2022/08/25 08:44:53;;;;;;;11.17;4.43;;;31.90;35.60;;;;;;5076582;28;20401;-64
2022/08/25 08:47:28;;;;;;;11.50;4.33;;;32.10;35.00;;;;;;5076831;28;20439;-64
2022/08/25 08:50:02;;;;;;;5.03;3.80;;;32.30;35.20;;;;;;5076680;28;20920;-64
2022/08/25 08:52:38;;;;;;;12.73;5.03;;;32.40;33.70;;;;;;5076598;28;20479;-64
2022/08/25 08:55:11;;;;;;;26.67;7.57;;;32.60;34.40;;;;;;5076466;28;20909;-64
2022/08/25 08:57:44;;;;;;;21.53;6.20;;;32.80;34.20;;;;;;5076563;28;20514;-64
2022/08/25 09:00:12;;;;;;;9.10;4.67;;;32.90;34.00;;;;;;5076932;28;20424;-64
2022/08/25 09:02:46;;;;;;;9.80;4.63;;;33.00;33.50;;;;;;5075987;28;21015;-64
2022/08/25 09:05:18;;;;;;;20.40;5.70;;;33.30;33.40;;;;;;5076108;28;20452;-64
2022/08/25 09:07:48;;;;;;;9.73;5.03;;;33.50;33.30;;;;;;5076525;28;20429;-64
2022/08/25 09:10:18;;;;;;;8.43;4.57;;;33.60;32.80;;;;;;5075993;28;20432;-64
2022/08/25 09:12:50;;;;;;;4.50;4.10;;;33.80;32.20;;;;;;5075744;28;20464;-64
2022/08/25 09:15:24;;;;;;;12.50;4.47;;;34.00;31.30;;;;;;5078354;28;20440;-64
2022/08/25 09:18:23;;;;;;;17.00;6.03;;;34.20;31.60;;;;;;5079177;28;20491;-65
2022/08/25 09:20:58;;;;;;;5.17;4.67;;;34.40;31.50;;;;;;5078090;28;20519;-64
2022/08/25 09:23:38;;;;;;;7.70;4.33;;;34.60;31.30;;;;;;5075718;28;20858;-65
2022/08/25 09:26:21;;;;;;;4.70;4.30;;;34.90;31.10;;;;;;5076691;28;20429;-64
2022/08/25 09:28:50;;;;;;;12.03;4.47;;;35.10;30.60;;;;;;5075699;28;20432;-64
2022/08/25 09:31:21;;;;;;;5.43;4.00;;;35.40;29.50;;;;;;5076084;28;20467;-63
2022/08/25 09:33:48;;;;;;;6.00;4.10;;;35.60;29.80;;;;;;5075837;28;20470;-63
2022/08/25 09:36:15;;;;;;;4.53;3.70;;;35.80;30.00;;;;;;5076201;28;20531;-64
2022/08/25 09:38:41;;;;;;;9.07;4.50;;;36.00;28.50;;;;;;5075741;28;20483;-64
2022/08/25 09:41:10;;;;;;;12.47;5.40;;;36.10;28.40;;;;;;5076216;28;20832;-64
2022/08/25 09:43:41;;;;;;;10.87;5.53;;;36.30;29.10;;;;;;5076011;28;20472;-64
2022/08/25 09:46:13;;;;;;;6.10;4.60;;;36.50;29.10;;;;;;5076290;28;20429;-64
2022/08/25 09:48:48;;;;;;;16.90;5.30;;;36.70;28.80;;;;;;5076727;28;20445;-64
2022/08/25 09:51:24;;;;;;;9.30;4.83;;;37.00;28.50;;;;;;5077247;28;20186;-63
2022/08/25 09:53:54;;;;;;;5.90;4.07;;;37.10;28.00;;;;;;5076745;28;20279;-64
2022/08/25 09:56:26;;;;;;;5.17;4.10;;;37.50;27.90;;;;;;5077332;28;20190;-64
2022/08/25 09:58:53;;;;;;;6.70;4.53;;;37.70;27.90;;;;;;5076492;28;20206;-64
2022/08/25 10:01:22;;;;;;;8.63;4.70;;;37.90;26.40;;;;;;5076305;28;20194;-64
2022/08/25 10:03:58;;;;;;;7.33;4.80;;;38.10;26.20;;;;;;5076350;28;20221;-64
2022/08/25 10:06:28;;;;;;;11.18;4.03;;;38.50;26.50;;;;;;5076854;28;20189;-64
2022/08/25 10:08:59;;;;;;;7.13;3.80;;;38.70;26.30;;;;;;5077569;28;20218;-64
2022/08/25 10:11:48;;;;;;;4.68;3.33;;;39.00;25.90;;;;;;5078528;28;20183;-64
2022/08/25 10:14:21;;;;;;;6.90;3.88;;;39.20;23.80;;;;;;5072648;28;20600;-64
2022/08/25 10:16:49;;;;;;;4.43;4.07;;;39.30;24.20;;;;;;5077732;28;20186;-64
2022/08/25 10:19:25;;;;;;;4.90;3.50;;;39.40;24.00;;;;;;5078022;28;20210;-64
2022/08/25 10:22:07;;;;;;;13.00;5.80;;;39.70;24.70;;;;;;5076723;28;20668;-64
2022/08/25 10:24:35;;;;;;;22.73;5.13;;;40.20;24.90;;;;;;5074180;28;20220;-64
2022/08/25 10:27:15;;;;;;;16.90;4.93;;;40.50;24.20;;;;;;5074962;28;20190;-64
2022/08/25 10:30:15;;;;;;;5.63;3.72;;;40.90;23.80;;;;;;5076176;28;20276;-63
2022/08/25 10:33:12;;;;;;;6.75;3.90;;;41.50;22.80;;;;;;5076955;28;20332;-64
2022/08/25 10:35:55;;;;;;;6.88;3.60;;;42.10;22.40;;;;;;5057324;28;20198;-64
2022/08/25 10:38:35;;;;;;;14.35;5.20;;;42.60;21.90;;;;;;5077850;28;20210;-64
2022/08/25 10:41:15;;;;;;;4.80;3.80;;;43.10;21.90;;;;;;5082151;28;20190;-65
2022/08/25 10:43:49;;;;;;;7.72;3.38;;;43.70;21.20;;;;;;5081433;28;20721;-65
2022/08/25 10:46:19;;;;;;;4.82;3.58;;;44.10;20.30;;;;;;5081368;28;20192;-64
2022/08/25 10:48:56;;;;;;;9.52;3.50;;;44.60;20.10;;;;;;5080657;28;20202;-64
2022/08/25 10:51:44;;;;;;;3.13;2.92;;;45.20;19.00;;;;;;5081975;28;20201;-64
2022/08/25 10:54:26;;;;;;;4.57;3.50;;;45.60;17.60;;;;;;5081668;28;20197;-64
2022/08/25 10:57:03;;;;;;;3.25;2.90;;;45.80;17.10;;;;;;5081635;28;20639;-64
2022/08/25 10:59:57;;;;;;;4.22;2.92;;;45.70;17.20;;;;;;5081636;28;20705;-64
2022/08/25 11:02:52;;;;;;;6.78;2.95;;;45.80;17.20;;;;;;5082041;28;20245;-64
2022/08/25 11:05:26;;;;;;;5.03;2.78;;;45.90;17.40;;;;;;5081702;28;20210;-64
2022/08/25 11:07:59;;;;;;;4.85;3.28;;;46.30;16.80;;;;;;5081828;28;20182;-64
2022/08/25 11:10:31;;;;;;;9.02;3.50;;;46.50;17.40;;;;;;5082667;28;20210;-65
2022/08/25 11:13:02;;;;;;;7.95;3.30;;;47.00;17.30;;;;;;5081381;28;20222;-64
2022/08/25 11:15:35;;;;;;;10.68;3.08;;;47.40;16.40;;;;;;5081307;28;20194;-65
2022/08/25 11:18:07;;;;;;;3.72;3.00;;;47.70;15.00;;;;;;5081429;28;20663;-65
2022/08/25 11:20:40;;;;;;;5.10;2.92;;;47.90;15.30;;;;;;5080485;28;20269;-65
2022/08/25 11:23:16;;;;;;;2.80;2.55;;;48.20;15.30;;;;;;5082015;28;20279;-65
2022/08/25 11:25:46;;;;;;;25.02;6.43;;;48.60;15.70;;;;;;5082192;28;20232;-65
2022/08/25 11:28:16;;;;;;;3.92;2.90;;;48.90;15.20;;;;;;5081804;28;20218;-65
2022/08/25 11:30:44;;;;;;;4.85;2.60;;;49.10;14.20;;;;;;5083179;28;20273;-65
2022/08/25 11:33:13;;;;;;;3.78;2.67;;;49.40;14.20;;;;;;5082467;28;20247;-64
2022/08/25 11:35:43;;;;;;;3.60;2.28;;;49.50;14.40;;;;;;5082456;28;20190;-64
2022/08/25 11:38:24;;;;;;;27.33;5.97;;;49.80;14.90;;;;;;5082696;28;20678;-65
2022/08/25 11:41:02;;;;;;;9.10;3.63;;;50.00;14.30;;;;;;5083284;28;20194;-65
2022/08/25 11:43:45;;;;;;;3.50;2.30;;;50.30;14.30;;;;;;5082327;28;20248;-65
2022/08/25 11:46:49;;;;;;;3.05;2.40;;;50.50;13.80;;;;;;5083606;28;20186;-65
2022/08/25 11:49:44;;;;;;;4.50;2.58;;;50.80;13.50;;;;;;5080665;28;20208;-65
2022/08/25 11:52:44;;;;;;;3.28;2.10;;;51.20;13.40;;;;;;5082673;28;20283;-65
2022/08/25 11:55:13;;;;;;;2.38;2.17;;;51.30;11.70;;;;;;5083196;28;20607;-65
2022/08/25 11:57:41;;;;;;;2.42;2.08;;;51.00;12.00;;;;;;5082627;28;20635;-65
2022/08/25 12:00:13;;;;;;;3.65;2.33;;;50.70;12.70;;;;;;5082858;28;20224;-65
2022/08/25 12:02:43;;;;;;;2.40;2.20;;;50.70;11.80;;;;;;5083557;28;20241;-65
2022/08/25 12:06:10;;;;;;;2.53;2.03;;;50.60;12.30;;;;;;5082591;28;20202;-65
2022/08/25 12:08:55;;;;;;;6.30;2.60;;;50.80;13.40;;;;;;5083970;28;20580;-65
2022/08/25 12:11:45;;;;;;;21.35;5.63;;;51.20;13.50;;;;;;5083426;28;20209;-65
2022/08/25 12:14:17;;;;;;;7.00;3.05;;;51.70;13.10;;;;;;5084700;28;20194;-66
2022/08/25 12:17:05;;;;;;;4.32;2.90;;;52.10;12.90;;;;;;5084273;28;20193;-65
2022/08/25 12:19:48;;;;;;;13.13;3.65;;;52.60;12.30;;;;;;5084095;28;20210;-65
2022/08/25 12:22:55;;;;;;;5.50;2.47;;;52.80;11.40;;;;;;5084216;28;20222;-66
2022/08/25 12:25:49;;;;;;;5.78;3.25;;;53.20;11.40;;;;;;5064424;28;20202;-66
2022/08/25 12:28:32;;;;;;;39.72;8.05;;;53.50;10.40;;;;;;5063786;28;20636;-66
2022/08/25 12:31:06;;;;;;;3.58;2.22;;;53.70;11.10;;;;;;5064015;28;20197;-66
2022/08/25 12:33:42;;;;;;;4.32;2.10;;;53.90;10.80;;;;;;5064601;28;20250;-66
2022/08/25 12:36:25;;;;;;;3.47;2.45;;;54.20;10.70;;;;;;5065719;28;20186;-66
2022/08/25 12:38:52;;;;;;;1.95;1.75;;;54.50;10.60;;;;;;5049766;28;20221;-66
2022/08/25 12:41:23;;;;;;;3.33;2.05;;;54.80;10.50;;;;;;5063257;28;20203;-66
2022/08/25 12:43:53;;;;;;;2.15;1.95;;;54.90;9.70;;;;;;5064130;28;20227;-66
2022/08/25 12:46:38;;;;;;;2.60;2.40;;;55.10;9.90;;;;;;5063510;28;20565;-65
2022/08/25 12:49:11;;;;;;;8.00;2.50;;;55.20;8.80;;;;;;5064673;28;20281;-66
2022/08/25 12:51:55;;;;;;;4.40;2.03;;;55.10;9.10;;;;;;5066555;28;20194;-66
2022/08/25 12:54:32;;;;;;;2.15;2.05;;;55.20;9.90;;;;;;5063231;28;20234;-66
2022/08/25 12:57:03;;;;;;;2.55;1.88;;;55.30;8.50;;;;;;5066490;28;20236;-66
2022/08/25 12:59:35;;;;;;;1.60;1.50;;;55.40;9.30;;;;;;5065758;28;20206;-66
2022/08/25 13:02:22;;;;;;;2.20;2.00;;;55.60;9.80;;;;;;5064390;28;20222;-66
2022/08/25 13:05:11;;;;;;;2.53;1.90;;;55.80;9.30;;;;;;5065024;28;20187;-66
2022/08/25 13:07:51;;;;;;;2.10;1.70;;;55.90;9.10;;;;;;5064324;28;20563;-66
2022/08/25 13:10:32;;;;;;;2.80;1.70;;;56.30;8.60;;;;;;5064323;28;20214;-66
2022/08/25 13:13:06;;;;;;;4.15;2.08;;;56.50;8.50;;;;;;5064453;28;20233;-66
2022/08/25 13:15:37;;;;;;;2.63;2.00;;;56.60;7.10;;;;;;5065069;28;20186;-66